Time;durP1;ratioP1;P1;durP2;ratioP2;P2;SDS_P1;SDS_P2;PMS_P1;PMS_P2;Temp;Humidity;BMP_temperature;BMP_pressure;BME280_temperature;BME280_humidity;BME280_pressure;Samples;Min_cycle;Max_cycle;Signal;HPM_P1;HPM_P2
2023/07/03 00:00:31;;;;;;;3.67;1.30;;;;;;;17.37;78.86;99895.72;5044074;28;20275;-59
2023/07/03 00:03:03;;;;;;;1.77;1.10;;;;;;;17.52;78.87;99902.84;5020654;28;20287;-59
2023/07/03 00:05:35;;;;;;;1.20;0.90;;;;;;;17.55;77.60;99902.72;5036901;28;20290;-59
2023/07/03 00:08:09;;;;;;;2.30;1.23;;;;;;;17.65;78.15;99890.75;5029208;28;20283;-60
2023/07/03 00:10:42;;;;;;;3.47;1.10;;;;;;;17.76;77.66;99891.97;5029261;28;20287;-61
2023/07/03 00:13:15;;;;;;;2.20;1.20;;;;;;;17.78;77.50;99887.47;5040303;28;20325;-59
2023/07/03 00:15:46;;;;;;;2.43;1.63;;;;;;;17.82;76.83;99883.75;5030420;28;20290;-61
2023/07/03 00:18:18;;;;;;;0.87;0.83;;;;;;;17.81;77.17;99882.06;5041010;28;20287;-59
2023/07/03 00:20:54;;;;;;;1.77;1.00;;;;;;;17.83;75.33;99885.47;5029967;28;20279;-62
2023/07/03 00:23:26;;;;;;;2.90;1.10;;;;;;;17.83;75.59;99880.19;5038072;28;20295;-61
2023/07/03 00:25:57;;;;;;;1.47;0.80;;;;;;;17.72;74.35;99882.50;5026676;28;20279;-60
2023/07/03 00:28:37;;;;;;;1.73;0.90;;;;;;;17.61;75.95;99881.25;5029523;28;20299;-60
2023/07/03 00:31:08;;;;;;;2.63;0.80;;;;;;;17.50;75.02;99888.91;5029242;28;20665;-59
2023/07/03 00:33:41;;;;;;;2.73;1.20;;;;;;;17.52;75.98;99889.66;5021057;28;20314;-61
2023/07/03 00:36:13;;;;;;;6.33;1.90;;;;;;;17.43;76.35;99882.22;5040175;28;20534;-61
2023/07/03 00:38:47;;;;;;;2.50;1.00;;;;;;;17.42;75.77;99885.78;5029366;28;20362;-60
2023/07/03 00:41:18;;;;;;;1.23;0.80;;;;;;;17.47;76.38;99883.75;5039253;28;20899;-60
2023/07/03 00:43:49;;;;;;;2.13;1.10;;;;;;;17.46;77.47;99887.34;5029704;28;20298;-61
2023/07/03 00:46:20;;;;;;;1.37;1.03;;;;;;;17.48;76.73;99880.19;5039194;28;20287;-62
2023/07/03 00:48:53;;;;;;;4.20;1.20;;;;;;;17.48;76.91;99887.28;5032168;28;20275;-62
2023/07/03 00:51:30;;;;;;;6.43;1.53;;;;;;;17.43;78.09;99882.22;5044375;28;20271;-59
2023/07/03 00:54:04;;;;;;;6.23;1.30;;;;;;;17.44;78.28;99886.56;5030885;28;20774;-60
2023/07/03 00:56:35;;;;;;;8.83;1.17;;;;;;;17.46;77.08;99887.34;5040060;28;20328;-60
2023/07/03 01:01:49;;;;;;;5.60;2.50;;;;;;;17.72;77.12;99887.78;5153778;22;20293;-60
2023/07/03 01:04:25;;;;;;;3.15;1.40;;;;;;;17.74;78.78;99864.78;5005468;28;20357;-60
2023/07/03 01:07:02;;;;;;;2.87;1.10;;;;;;;17.67;77.96;99843.97;4981263;28;20108;-62
2023/07/03 01:09:42;;;;;;;1.67;0.87;;;;;;;17.74;76.79;99865.63;4986314;28;20273;-59
2023/07/03 01:12:15;;;;;;;5.93;1.40;;;;;;;17.84;77.02;99882.72;4976716;28;20883;-60
2023/07/03 01:14:47;;;;;;;2.13;1.00;;;;;;;17.83;76.07;99883.69;4978882;28;20701;-60
2023/07/03 01:17:18;;;;;;;7.57;1.77;;;;;;;17.70;76.62;99885.22;5002720;28;20327;-62
2023/07/03 01:19:50;;;;;;;3.60;0.80;;;;;;;17.59;76.25;99893.69;4994177;28;20312;-58
2023/07/03 01:22:25;;;;;;;1.87;0.97;;;;;;;17.44;76.53;99887.41;5004256;28;20288;-62
2023/07/03 01:25:00;;;;;;;2.43;1.70;;;;;;;17.47;78.19;99894.31;4986422;28;20389;-59
2023/07/03 01:27:34;;;;;;;3.73;1.10;;;;;;;17.27;79.45;99891.81;4991686;28;20292;-59
2023/07/03 01:30:08;;;;;;;3.10;0.90;;;;;;;17.19;80.21;99895.69;4981611;28;20361;-62
2023/07/03 01:32:40;;;;;;;4.73;1.20;;;;;;;17.27;82.13;99899.75;4983802;28;20391;-62
2023/07/03 01:35:12;;;;;;;4.43;1.53;;;;;;;17.48;84.66;99898.69;4992636;28;20351;-61
2023/07/03 01:37:46;;;;;;;2.83;1.20;;;;;;;17.58;84.13;99902.56;4981731;28;21690;-62
2023/07/03 01:40:21;;;;;;;2.00;1.20;;;;;;;17.66;84.78;99910.94;4989545;28;20303;-61
2023/07/03 01:42:52;;;;;;;2.87;1.83;;;;;;;17.65;83.78;99909.25;4982394;28;21237;-63
2023/07/03 01:45:23;;;;;;;2.43;1.60;;;;;;;17.33;83.30;99902.09;4992119;28;20284;-63
2023/07/03 01:47:54;;;;;;;2.13;1.30;;;;;;;17.26;85.89;99917.38;4983059;28;20295;-62
2023/07/03 01:50:28;;;;;;;3.00;1.60;;;;;;;17.31;86.70;99909.25;4992099;28;20288;-62
2023/07/03 01:53:03;;;;;;;3.37;1.50;;;;;;;17.36;86.77;99912.50;4982800;28;20338;-63
2023/07/03 01:55:41;;;;;;;12.07;2.93;;;;;;;17.32;85.91;99916.22;4991819;28;20376;-62
2023/07/03 01:58:19;;;;;;;5.07;1.90;;;;;;;17.40;84.92;99907.00;4981480;28;20299;-63
2023/07/03 02:00:53;;;;;;;4.18;1.73;;;;;;;17.74;86.78;99907.06;4981889;28;20295;-62
2023/07/03 02:03:40;;;;;;;2.00;1.37;;;;;;;18.10;88.03;99899.88;4991555;28;20057;-63
2023/07/03 02:06:15;;;;;;;1.63;1.43;;;;;;;18.30;86.30;99900.59;4981561;28;20317;-62
2023/07/03 02:08:47;;;;;;;5.83;1.57;;;;;;;18.44;85.52;99898.03;4982924;28;20296;-62
2023/07/03 02:11:21;;;;;;;5.03;1.10;;;;;;;18.40;84.68;99880.66;4991140;28;20277;-62
2023/07/03 02:13:52;;;;;;;2.13;1.17;;;;;;;18.45;85.42;99877.75;4981684;28;20299;-60
2023/07/03 02:16:22;;;;;;;0.83;0.80;;;;;;;18.66;82.78;99896.88;4991333;28;20977;-62
2023/07/03 02:18:55;;;;;;;3.23;2.30;;;;;;;18.77;81.31;99883.94;4981726;28;21380;-59
2023/07/03 02:21:25;;;;;;;1.83;1.07;;;;;;;18.64;77.43;99890.78;4991190;28;20312;-59
2023/07/03 02:24:01;;;;;;;2.40;0.93;;;;;;;18.64;77.34;99889.00;4981348;28;20280;-60
2023/07/03 02:26:34;;;;;;;1.57;1.10;;;;;;;18.69;76.69;99891.41;4991588;28;20359;-60
2023/07/03 02:29:04;;;;;;;1.27;0.70;;;;;;;18.86;77.97;99893.13;4981193;28;20288;-61
2023/07/03 02:31:35;;;;;;;15.60;3.60;;;;;;;19.13;77.94;99894.19;4992097;28;20306;-60
2023/07/03 02:34:06;;;;;;;1.10;0.90;;;;;;;19.18;76.27;99888.66;4982036;28;20910;-59
2023/07/03 02:36:37;;;;;;;4.07;0.97;;;;;;;19.02;76.17;99875.44;4987931;28;20367;-62
2023/07/03 02:39:09;;;;;;;2.77;1.33;;;;;;;19.39;77.09;99895.34;4991622;28;20371;-61
2023/07/03 02:41:41;;;;;;;3.73;1.23;;;;;;;19.40;75.07;99890.91;4982701;28;20284;-62
2023/07/03 02:44:12;;;;;;;4.10;1.23;;;;;;;19.52;76.39;99891.94;4992866;28;20304;-61
2023/07/03 02:46:42;;;;;;;2.20;1.10;;;;;;;19.68;76.54;99881.34;4981653;28;20284;-62
2023/07/03 02:49:13;;;;;;;3.07;1.43;;;;;;;19.82;76.04;99884.84;4991897;28;20287;-62
2023/07/03 02:51:43;;;;;;;4.60;1.40;;;;;;;19.95;75.78;99878.81;4981473;28;20289;-61
2023/07/03 02:54:14;;;;;;;5.20;1.40;;;;;;;20.05;76.02;99885.25;4992121;28;20342;-63
2023/07/03 02:56:46;;;;;;;2.53;1.10;;;;;;;20.04;74.99;99883.53;4982223;28;20293;-60
2023/07/03 02:59:16;;;;;;;5.70;1.17;;;;;;;19.95;74.81;99878.81;4991410;28;20284;-60
2023/07/03 03:01:47;;;;;;;1.67;1.00;;;;;;;19.86;74.59;99876.72;4981396;28;20801;-62
2023/07/03 03:04:17;;;;;;;4.07;0.87;;;;;;;19.78;74.62;99878.03;4991136;28;20663;-62
2023/07/03 03:06:49;;;;;;;3.53;1.00;;;;;;;19.60;74.99;99876.47;4981867;28;20292;-61
2023/07/03 03:09:20;;;;;;;2.33;1.20;;;;;;;19.51;75.51;99884.94;4990897;28;20289;-59
2023/07/03 03:11:52;;;;;;;3.53;1.10;;;;;;;19.35;76.05;99885.88;4981723;28;20399;-63
2023/07/03 03:14:23;;;;;;;3.20;1.63;;;;;;;19.14;76.28;99879.16;4991544;28;20304;-61
2023/07/03 03:16:53;;;;;;;6.17;1.50;;;;;;;18.98;77.25;99878.34;4981309;28;20285;-62
2023/07/03 03:19:24;;;;;;;4.70;1.33;;;;;;;18.51;77.80;99830.63;4990958;28;20303;-63
2023/07/03 03:21:54;;;;;;;4.33;1.47;;;;;;;18.59;77.96;99872.53;4981937;28;20285;-62
2023/07/03 03:24:25;;;;;;;1.40;1.00;;;;;;;18.56;79.09;99874.50;4990859;28;20351;-62
2023/07/03 03:26:58;;;;;;;6.03;1.43;;;;;;;18.53;79.77;99886.97;4981751;28;20295;-60
2023/07/03 03:29:30;;;;;;;8.97;1.67;;;;;;;18.44;79.57;99871.59;4991267;28;20285;-62
2023/07/03 03:32:00;;;;;;;5.93;1.60;;;;;;;18.35;80.21;99879.19;4979129;28;20296;-61
2023/07/03 03:34:32;;;;;;;6.97;1.40;;;;;;;18.35;80.96;99872.09;4991013;28;20751;-62
2023/07/03 03:37:03;;;;;;;8.50;1.43;;;;;;;18.36;80.68;99873.81;4981039;28;20288;-62
2023/07/03 03:39:34;;;;;;;4.87;1.10;;;;;;;18.44;80.64;99881.31;4992741;28;20285;-62
2023/07/03 03:42:07;;;;;;;7.87;2.07;;;;;;;18.59;81.70;99869.88;4984561;28;20300;-60
2023/07/03 03:44:38;;;;;;;7.60;1.67;;;;;;;18.75;81.39;99869.91;4985545;28;20285;-58
2023/07/03 03:47:09;;;;;;;4.83;1.70;;;;;;;18.82;80.83;99871.28;4994822;28;20387;-59
2023/07/03 03:49:40;;;;;;;4.03;1.50;;;;;;;18.80;80.01;99865.22;4984905;28;20307;-59
2023/07/03 03:52:10;;;;;;;3.17;1.50;;;;;;;18.60;80.38;99844.31;4994150;28;20784;-58
2023/07/03 03:54:41;;;;;;;3.53;1.73;;;;;;;18.70;80.26;99861.38;4984746;28;20297;-58
2023/07/03 03:57:14;;;;;;;4.97;1.93;;;;;;;18.75;80.66;99854.00;4994077;28;20308;-59
2023/07/03 03:59:44;;;;;;;2.70;1.57;;;;;;;18.69;80.48;99854.34;4985627;28;20315;-59
2023/07/03 04:02:15;;;;;;;9.97;1.70;;;;;;;18.64;79.69;99856.41;4993776;28;20295;-58
2023/07/03 04:04:45;;;;;;;4.70;1.83;;;;;;;18.60;79.39;99849.59;4985047;28;20374;-59
2023/07/03 04:07:19;;;;;;;7.10;2.53;;;;;;;18.55;79.99;99831.31;4994433;28;20296;-58
2023/07/03 04:09:49;;;;;;;6.90;2.13;;;;;;;18.63;79.49;99855.56;4985150;28;20343;-59
2023/07/03 04:12:21;;;;;;;5.20;2.00;;;;;;;18.65;78.42;99853.69;4993432;28;20282;-59
2023/07/03 04:14:52;;;;;;;4.67;2.03;;;;;;;18.61;77.88;99851.28;4985003;28;20296;-59
2023/07/03 04:17:23;;;;;;;8.10;2.47;;;;;;;18.49;77.91;99851.00;4993653;28;20347;-59
2023/07/03 04:19:55;;;;;;;3.67;2.00;;;;;;;18.37;77.96;99849.09;4984828;28;20331;-58
2023/07/03 04:22:26;;;;;;;7.93;2.40;;;;;;;18.23;77.96;99841.03;4994004;28;20298;-58
2023/07/03 04:24:57;;;;;;;6.47;2.33;;;;;;;17.76;78.20;99767.78;4984245;28;20331;-58
2023/07/03 04:27:31;;;;;;;4.57;2.20;;;;;;;18.39;79.02;99847.19;4993190;28;20372;-59
2023/07/03 04:30:02;;;;;;;5.03;1.90;;;;;;;18.41;77.76;99845.31;4983517;28;20404;-59
2023/07/03 04:32:32;;;;;;;5.40;2.07;;;;;;;18.33;77.52;99847.53;4994504;28;20350;-58
2023/07/03 04:35:07;;;;;;;2.90;1.60;;;;;;;18.15;77.48;99801.81;4983578;28;20375;-58
2023/07/03 04:37:38;;;;;;;2.63;1.70;;;;;;;18.29;76.46;99822.19;4984029;28;20295;-58
2023/07/03 04:40:10;;;;;;;10.10;3.23;;;;;;;18.45;76.95;99846.84;4993561;28;20324;-58
2023/07/03 04:42:42;;;;;;;3.50;1.50;;;;;;;18.21;75.31;99842.91;4984003;28;20317;-59
2023/07/03 04:45:15;;;;;;;7.80;2.43;;;;;;;18.02;77.92;99833.34;4991258;28;20301;-58
2023/07/03 04:47:46;;;;;;;3.60;1.70;;;;;;;18.06;78.75;99840.16;4984464;28;20296;-59
2023/07/03 04:50:16;;;;;;;4.30;1.43;;;;;;;18.03;78.60;99835.03;4992928;28;20367;-58
2023/07/03 04:52:49;;;;;;;4.27;1.70;;;;;;;18.00;78.42;99827.28;4984135;28;20351;-59
2023/07/03 04:55:21;;;;;;;4.00;1.60;;;;;;;18.05;80.01;99816.47;4992964;28;20315;-59
2023/07/03 04:57:53;;;;;;;5.23;1.83;;;;;;;18.22;79.81;99826.09;4983532;28;20778;-58
2023/07/03 05:00:24;;;;;;;6.53;2.37;;;;;;;18.27;79.58;99837.28;4992727;28;20276;-59
2023/07/03 05:02:58;;;;;;;2.50;1.90;;;;;;;18.31;80.33;99825.59;4984591;28;20315;-59
2023/07/03 05:05:29;;;;;;;3.07;1.90;;;;;;;18.35;79.42;99808.63;4993219;28;20286;-59
2023/07/03 05:07:59;;;;;;;6.90;2.33;;;;;;;18.58;80.25;99830.28;4983136;28;20876;-59
2023/07/03 05:10:30;;;;;;;5.03;2.07;;;;;;;18.87;80.58;99831.28;4993058;28;20288;-59
2023/07/03 05:13:02;;;;;;;3.07;1.77;;;;;;;18.95;79.51;99803.44;4983316;28;20285;-60
2023/07/03 05:15:33;;;;;;;4.50;1.93;;;;;;;19.18;79.36;99825.94;4993147;28;20346;-59
2023/07/03 05:18:03;;;;;;;4.20;1.80;;;;;;;19.20;78.32;99823.19;4983353;28;20286;-60
2023/07/03 05:20:34;;;;;;;4.20;1.93;;;;;;;19.36;77.77;99823.97;4993706;28;20297;-59
2023/07/03 05:23:05;;;;;;;2.87;1.67;;;;;;;19.44;77.29;99817.38;4982373;28;20354;-60
2023/07/03 05:25:35;;;;;;;3.07;1.73;;;;;;;19.59;76.92;99816.44;4993271;28;20367;-58
2023/07/03 05:28:08;;;;;;;3.17;2.00;;;;;;;19.76;76.35;99818.94;4982162;28;20761;-58
2023/07/03 05:30:38;;;;;;;2.80;2.00;;;;;;;19.84;75.12;99807.84;4982741;28;20334;-58
2023/07/03 05:33:10;;;;;;;2.97;1.60;;;;;;;19.96;75.35;99806.25;4992633;28;20754;-60
2023/07/03 05:35:41;;;;;;;10.97;2.33;;;;;;;19.97;74.08;99807.97;4983690;28;20833;-59
2023/07/03 05:38:19;;;;;;;2.33;1.80;;;;;;;19.97;74.06;99814.13;4992633;28;20303;-58
2023/07/03 05:40:50;;;;;;;2.37;1.73;;;;;;;19.78;73.25;99803.81;4982748;28;20058;-58
2023/07/03 05:43:23;;;;;;;2.23;1.60;;;;;;;19.77;73.13;99810.06;4992536;28;20407;-59
2023/07/03 05:45:53;;;;;;;3.60;1.90;;;;;;;19.54;72.41;99810.56;4982442;28;20308;-59
2023/07/03 05:48:27;;;;;;;7.53;2.10;;;;;;;19.31;72.62;99814.59;4992501;28;20364;-59
2023/07/03 05:50:58;;;;;;;4.20;2.17;;;;;;;19.01;72.62;99801.38;4984125;28;20823;-59
2023/07/03 05:53:28;;;;;;;4.37;2.03;;;;;;;18.81;72.35;99816.63;4993317;28;20299;-60
2023/07/03 05:56:01;;;;;;;3.20;2.20;;;;;;;18.57;72.99;99807.41;4983566;28;20292;-59
2023/07/03 05:58:34;;;;;;;4.83;2.90;;;;;;;18.36;73.32;99812.97;4992373;28;20280;-59
2023/07/03 06:01:05;;;;;;;6.20;2.70;;;;;;;18.18;74.39;99811.34;4981233;28;20321;-59
2023/07/03 06:03:35;;;;;;;5.33;2.53;;;;;;;18.07;75.18;99815.44;4992207;28;20296;-59
2023/07/03 06:06:08;;;;;;;9.23;2.53;;;;;;;18.08;76.50;99814.50;4981436;28;20285;-59
2023/07/03 06:08:43;;;;;;;7.50;2.83;;;;;;;17.98;75.84;99810.66;4979585;28;20295;-59
2023/07/03 06:11:13;;;;;;;7.53;3.47;;;;;;;17.92;76.69;99810.97;4990504;28;20276;-59
2023/07/03 06:13:45;;;;;;;7.33;3.63;;;;;;;17.89;76.18;99809.34;4980831;28;20300;-60
2023/07/03 06:16:16;;;;;;;9.17;3.20;;;;;;;17.81;76.08;99805.41;4989802;28;20901;-59
2023/07/03 06:18:47;;;;;;;4.23;3.00;;;;;;;17.75;76.17;99813.66;4980358;28;21087;-59
2023/07/03 06:21:17;;;;;;;4.03;2.80;;;;;;;17.65;76.05;99803.56;4989812;28;20311;-59
2023/07/03 06:23:48;;;;;;;5.37;2.77;;;;;;;17.54;76.34;99799.78;4981188;28;20386;-59
2023/07/03 06:26:19;;;;;;;5.70;3.37;;;;;;;17.31;77.11;99766.66;4989947;28;20415;-58
2023/07/03 06:28:51;;;;;;;12.07;3.47;;;;;;;17.56;76.70;99809.31;4979830;28;20383;-59
2023/07/03 06:31:22;;;;;;;5.43;3.23;;;;;;;17.56;76.78;99804.03;4989822;28;20363;-59
2023/07/03 06:33:53;;;;;;;9.53;3.03;;;;;;;17.56;76.82;99801.41;4980148;28;20763;-59
2023/07/03 06:36:25;;;;;;;4.60;2.80;;;;;;;17.58;77.37;99802.16;4987626;28;20276;-58
2023/07/03 06:38:56;;;;;;;7.50;2.70;;;;;;;17.55;77.09;99778.56;4981312;28;20292;-59
2023/07/03 06:41:31;;;;;;;5.27;2.93;;;;;;;17.56;76.92;99788.19;4989662;28;20674;-59
2023/07/03 06:44:04;;;;;;;4.43;2.87;;;;;;;17.58;76.58;99801.31;4979823;28;20296;-59
2023/07/03 06:46:36;;;;;;;4.90;2.90;;;;;;;17.56;76.20;99797.91;4988303;28;20296;-59
2023/07/03 06:49:07;;;;;;;5.83;3.30;;;;;;;17.47;77.29;99778.09;4989374;28;20314;-59
2023/07/03 06:51:40;;;;;;;5.87;3.00;;;;;;;17.51;76.75;99798.16;4980525;28;20297;-59
2023/07/03 06:54:11;;;;;;;4.77;2.67;;;;;;;17.44;76.47;99796.75;4989837;28;20323;-58
2023/07/03 06:56:42;;;;;;;4.00;2.83;;;;;;;17.16;76.90;99752.44;4980376;28;20284;-59
2023/07/03 06:59:15;;;;;;;9.63;3.93;;;;;;;17.34;77.36;99787.59;4987809;28;20291;-59
2023/07/03 07:01:45;;;;;;;13.43;3.00;;;;;;;17.39;77.94;99801.41;4978563;28;20285;-59
2023/07/03 07:04:17;;;;;;;7.10;2.97;;;;;;;17.41;78.20;99805.69;4989685;28;21041;-59
2023/07/03 07:06:48;;;;;;;6.77;2.70;;;;;;;17.37;76.43;99808.56;4988944;28;20288;-59
2023/07/03 07:09:19;;;;;;;4.70;2.60;;;;;;;17.30;75.95;99807.16;4994705;28;20391;-58
2023/07/03 07:11:50;;;;;;;10.27;3.03;;;;;;;17.06;76.01;99778.47;4980204;28;20286;-59
2023/07/03 07:14:23;;;;;;;4.57;2.77;;;;;;;17.24;75.84;99803.91;4993341;28;20342;-59
2023/07/03 07:16:54;;;;;;;6.10;2.90;;;;;;;17.01;76.37;99772.56;4979745;28;20305;-57
2023/07/03 07:19:24;;;;;;;3.60;2.70;;;;;;;17.27;76.01;99812.63;4988751;28;20306;-58
2023/07/03 07:21:55;;;;;;;5.83;2.93;;;;;;;17.33;77.12;99812.31;4984606;28;20289;-58
2023/07/03 07:24:27;;;;;;;3.87;2.47;;;;;;;17.04;77.56;99769.75;4992443;28;20276;-58
2023/07/03 07:26:59;;;;;;;13.47;2.77;;;;;;;17.25;76.70;99810.91;4985884;28;20414;-59
2023/07/03 07:29:32;;;;;;;7.27;2.60;;;;;;;17.22;77.10;99810.19;4995188;28;20646;-59
2023/07/03 07:32:03;;;;;;;8.03;3.10;;;;;;;17.16;76.94;99806.09;4984605;28;20292;-58
2023/07/03 07:34:33;;;;;;;9.90;2.90;;;;;;;17.16;77.53;99806.09;4995184;28;20343;-59
2023/07/03 07:37:04;;;;;;;12.00;3.03;;;;;;;17.15;77.87;99804.41;4984669;28;20670;-58
2023/07/03 07:39:35;;;;;;;9.50;3.50;;;;;;;17.07;77.29;99796.00;4994822;28;20458;-58
2023/07/03 07:42:06;;;;;;;13.07;3.00;;;;;;;17.04;78.05;99797.00;4984427;28;20303;-58
2023/07/03 07:44:38;;;;;;;6.20;3.10;;;;;;;16.99;78.46;99787.63;4992427;28;20395;-59
2023/07/03 07:47:11;;;;;;;6.40;2.83;;;;;;;17.06;78.82;99796.94;4994492;28;20288;-59
2023/07/03 07:49:42;;;;;;;5.83;2.90;;;;;;;17.04;78.96;99791.72;4985738;28;20288;-59
2023/07/03 07:52:13;;;;;;;12.70;3.03;;;;;;;17.06;78.75;99799.56;4994266;28;20387;-58
2023/07/03 07:54:44;;;;;;;4.63;3.03;;;;;;;16.98;78.23;99786.78;4985104;28;20350;-59
2023/07/03 07:57:17;;;;;;;6.27;2.90;;;;;;;17.09;78.05;99804.69;4994246;28;20285;-59
2023/07/03 07:59:49;;;;;;;8.77;3.07;;;;;;;17.11;79.07;99802.84;4985530;28;20292;-59
2023/07/03 08:02:21;;;;;;;11.03;3.07;;;;;;;17.11;79.65;99818.69;4994077;28;20296;-58
2023/07/03 08:05:03;;;;;;;8.10;3.43;;;;;;;17.11;80.00;99810.75;4984518;28;20316;-59
2023/07/03 08:07:34;;;;;;;5.47;3.13;;;;;;;17.10;79.96;99819.63;4994693;28;20289;-59
2023/07/03 08:10:05;;;;;;;5.83;3.53;;;;;;;17.10;80.65;99809.06;4984636;28;20379;-59
2023/07/03 08:12:35;;;;;;;7.07;3.43;;;;;;;17.08;80.80;99797.72;4994911;28;20416;-57
2023/07/03 08:15:08;;;;;;;7.57;3.70;;;;;;;17.09;80.67;99799.41;4983862;28;20287;-59
2023/07/03 08:17:39;;;;;;;7.73;3.70;;;;;;;16.72;80.53;99737.06;4985738;28;20281;-59
2023/07/03 08:20:11;;;;;;;7.77;3.67;;;;;;;17.02;80.94;99803.28;4993838;28;20339;-59
2023/07/03 08:22:42;;;;;;;12.50;3.30;;;;;;;16.96;81.02;99800.97;4983995;28;20620;-59
2023/07/03 08:25:12;;;;;;;4.00;3.30;;;;;;;16.95;80.43;99794.84;4992780;28;20380;-59
2023/07/03 08:27:47;;;;;;;5.50;3.23;;;;;;;16.53;79.53;99726.56;4984327;28;20292;-59
2023/07/03 08:30:21;;;;;;;10.83;3.93;;;;;;;16.81;79.89;99789.41;4993098;28;20365;-58
2023/07/03 08:32:52;;;;;;;6.77;3.43;;;;;;;16.76;80.80;99791.38;4984361;28;20293;-58
2023/07/03 08:35:23;;;;;;;4.73;3.20;;;;;;;16.78;81.63;99790.41;4993269;28;20285;-58
2023/07/03 08:37:58;;;;;;;7.43;3.67;;;;;;;16.76;82.42;99794.88;4984854;28;20337;-58
2023/07/03 08:40:35;;;;;;;6.03;3.47;;;;;;;16.72;82.59;99790.66;4993361;28;20379;-58
2023/07/03 08:43:09;;;;;;;7.13;3.50;;;;;;;16.70;83.20;99792.53;4983190;28;20291;-58
2023/07/03 08:45:55;;;;;;;5.80;3.47;;;;;;;16.71;83.78;99799.50;4984416;28;20288;-59
2023/07/03 08:48:28;;;;;;;7.87;3.23;;;;;;;16.65;83.79;99784.00;4992859;28;20327;-59
2023/07/03 08:51:02;;;;;;;9.83;3.57;;;;;;;16.64;84.50;99798.09;4984529;28;20296;-58
2023/07/03 08:53:37;;;;;;;6.93;3.60;;;;;;;16.55;84.26;99793.28;4993862;28;20647;-58
2023/07/03 08:56:13;;;;;;;5.40;3.40;;;;;;;16.52;84.76;99790.78;4983937;28;20299;-58
2023/07/03 08:58:44;;;;;;;6.00;3.20;;;;;;;16.52;85.53;99798.69;4983542;28;20315;-58
2023/07/03 09:01:22;;;;;;;5.97;3.13;;;;;;;16.47;85.95;99805.97;4992200;28;20846;-59
2023/07/03 09:04:10;;;;;;;7.07;3.03;;;;;;;16.46;86.53;99799.00;4982937;28;20431;-59
2023/07/03 09:06:50;;;;;;;5.75;3.50;;;;;;;16.37;86.71;99795.88;4983010;28;20314;-59
2023/07/03 09:09:27;;;;;;;6.47;3.58;;;;;;;16.12;86.62;99755.78;4992240;28;20064;-58
2023/07/03 09:12:07;;;;;;;8.83;3.63;;;;;;;16.38;86.92;99818.69;4983353;28;20073;-59
2023/07/03 09:14:44;;;;;;;9.63;4.00;;;;;;;16.27;87.44;99801.66;4982724;28;20289;-58
2023/07/03 09:17:18;;;;;;;9.63;4.00;;;;;;;16.21;88.29;99788.78;4991825;28;20601;-58
2023/07/03 09:19:53;;;;;;;10.83;4.20;;;;;;;16.26;88.60;99819.25;4982139;28;20312;-58
2023/07/03 09:22:30;;;;;;;9.73;3.80;;;;;;;15.92;88.51;99770.75;4988898;28;20304;-57
2023/07/03 09:25:05;;;;;;;6.67;3.70;;;;;;;16.23;88.52;99824.69;4981296;28;20284;-58
2023/07/03 09:27:38;;;;;;;6.27;3.97;;;;;;;16.18;88.28;99837.22;4992283;28;21441;-56
2023/07/03 09:30:13;;;;;;;9.87;3.97;;;;;;;15.64;87.80;99751.84;4991844;28;20643;-58
2023/07/03 09:32:48;;;;;;;6.67;3.50;;;;;;;16.10;87.31;99844.59;4982654;28;20292;-59
2023/07/03 09:35:22;;;;;;;7.97;3.70;;;;;;;16.07;87.64;99842.13;4991749;28;20488;-58
2023/07/03 09:38:01;;;;;;;9.40;3.77;;;;;;;15.94;87.97;99832.13;4981507;28;20398;-57
2023/07/03 09:40:37;;;;;;;6.60;3.37;;;;;;;15.92;87.97;99844.50;4991030;28;20288;-59
2023/07/03 09:43:15;;;;;;;6.73;3.90;;;;;;;15.89;87.83;99852.56;4981459;28;20315;-57
2023/07/03 09:45:48;;;;;;;6.70;3.83;;;;;;;15.86;88.14;99852.72;4981677;28;20284;-58
2023/07/03 09:48:27;;;;;;;5.80;3.63;;;;;;;15.71;88.11;99843.69;4991704;28;20305;-59
2023/07/03 09:51:00;;;;;;;8.47;3.90;;;;;;;15.72;87.99;99850.69;4982141;28;20338;-58
2023/07/03 09:53:42;;;;;;;6.60;3.80;;;;;;;15.66;87.93;99860.59;4985442;28;20292;-57
2023/07/03 09:56:17;;;;;;;9.00;4.00;;;;;;;15.37;87.74;99817.94;4991307;28;20367;-58
2023/07/03 09:58:50;;;;;;;9.93;4.37;;;;;;;15.60;87.27;99850.31;4981413;28;20348;-58
2023/07/03 10:01:25;;;;;;;8.60;4.40;;;;;;;15.58;87.43;99846.94;4990189;28;20292;-59
2023/07/03 10:04:09;;;;;;;14.20;4.60;;;;;;;15.48;87.56;99831.53;4982087;28;20336;-58
2023/07/03 10:06:54;;;;;;;8.50;3.70;;;;;;;15.51;87.19;99841.91;4981933;28;20319;-59
2023/07/03 10:09:32;;;;;;;9.37;4.27;;;;;;;15.41;87.70;99830.06;4991125;28;20292;-58
2023/07/03 10:12:11;;;;;;;6.63;4.10;;;;;;;15.50;87.91;99839.34;4981850;28;20281;-58
2023/07/03 10:14:49;;;;;;;7.33;4.00;;;;;;;15.51;88.12;99839.28;4982926;28;20306;-58
2023/07/03 10:17:28;;;;;;;6.27;4.20;;;;;;;15.49;88.14;99842.91;4991408;28;20280;-57
2023/07/03 10:20:03;;;;;;;;;;;;;;;15.50;88.08;99845.47;4982974;28;20308;-58
2023/07/03 10:22:36;;;;;;;10.43;3.97;;;;;;;15.47;88.14;99842.94;4992242;28;19929;-58
2023/07/03 10:25:18;;;;;;;8.23;4.00;;;;;;;15.49;88.30;99846.38;4981449;28;20304;-57
2023/07/03 10:27:53;;;;;;;6.93;4.23;;;;;;;15.49;88.02;99848.16;4981856;28;20285;-58
2023/07/03 10:30:27;;;;;;;24.27;7.00;;;;;;;15.49;88.39;99854.28;4991512;28;20285;-59
2023/07/03 10:33:00;;;;;;;6.50;4.13;;;;;;;15.34;88.63;99836.50;4982473;28;20294;-58
2023/07/03 10:35:36;;;;;;;14.90;4.47;;;;;;;15.44;88.82;99866.78;4991708;28;20298;-58
2023/07/03 10:38:17;;;;;;;13.27;5.40;;;;;;;15.44;89.23;99861.53;4981746;28;20281;-58
2023/07/03 10:40:59;;;;;;;14.20;5.40;;;;;;;15.37;89.00;99848.69;4982199;28;20295;-58
2023/07/03 10:43:34;;;;;;;11.17;4.67;;;;;;;15.42;89.55;99866.00;4991859;28;20287;-58
2023/07/03 10:46:09;;;;;;;9.53;4.67;;;;;;;15.18;90.26;99838.09;4981907;28;20299;-58
2023/07/03 10:48:41;;;;;;;18.20;7.53;;;;;;;15.34;90.76;99875.16;4979561;28;20291;-58
2023/07/03 10:51:22;;;;;;;10.50;7.37;;;;;;;15.29;91.80;99885.88;4991342;28;20740;-58
2023/07/03 10:53:57;;;;;;;11.17;6.23;;;;;;;15.21;92.75;99874.81;4983262;28;20379;-58
2023/07/03 10:56:35;;;;;;;12.50;7.17;;;;;;;15.06;93.67;99861.38;4992068;28;20481;-58
2023/07/03 10:59:14;;;;;;;11.18;8.30;;;;;;;15.20;94.38;99894.13;4981479;28;20395;-58
2023/07/03 11:01:53;;;;;;;21.65;12.13;;;;;;;15.20;94.89;99894.13;4982079;28;20061;-58
2023/07/03 11:04:30;;;;;;;;;;;;;;;15.17;95.07;99899.53;4991919;28;20764;-58
2023/07/03 11:07:10;;;;;;;15.57;11.10;;;;;;;15.15;95.76;99907.50;4980593;28;20485;-57
2023/07/03 11:09:53;;;;;;;17.33;9.00;;;;;;;15.13;96.26;99900.59;4981810;28;20350;-58
2023/07/03 11:12:34;;;;;;;11.50;6.40;;;;;;;15.07;96.36;99894.63;4991074;28;20291;-58
2023/07/03 11:15:17;;;;;;;14.03;6.67;;;;;;;14.91;97.00;99877.78;4980678;28;20416;-59
2023/07/03 11:18:04;;;;;;;12.17;6.20;;;;;;;15.03;97.68;99903.59;4982092;28;20298;-59
2023/07/03 11:20:45;;;;;;;9.23;6.50;;;;;;;14.97;98.21;99898.56;4982993;28;20998;-58
2023/07/03 11:23:28;;;;;;;12.03;7.30;;;;;;;14.40;98.97;99811.41;4991538;28;20042;-59
2023/07/03 11:26:07;;;;;;;11.57;7.33;;;;;;;14.50;99.57;99819.75;4981646;28;20286;-59
2023/07/03 11:28:45;;;;;;;11.47;6.30;;;;;;;15.03;100.00;99903.59;4981451;28;20289;-58
2023/07/03 11:31:17;;;;;;;9.43;5.40;;;;;;;15.08;100.00;99922.69;4990608;28;20316;-58
2023/07/03 11:33:51;;;;;;;10.80;5.20;;;;;;;15.09;100.00;99908.59;4981835;28;20280;-59
2023/07/03 11:36:43;;;;;;;8.47;4.67;;;;;;;14.97;100.00;99881.94;4991346;28;20290;-59
2023/07/03 11:39:24;;;;;;;9.63;4.80;;;;;;;15.06;99.76;99902.63;4990830;28;20316;-59
2023/07/03 11:42:14;;;;;;;8.53;4.67;;;;;;;15.01;99.39;99894.91;4982235;28;20283;-59
2023/07/03 11:44:50;;;;;;;8.63;4.10;;;;;;;15.09;99.13;99916.50;4981492;28;20683;-58
2023/07/03 11:47:27;;;;;;;8.67;4.47;;;;;;;15.01;98.43;99908.06;4990974;28;20289;-59
2023/07/03 11:50:02;;;;;;;7.77;4.37;;;;;;;14.79;97.91;99873.00;4980958;28;20778;-58
2023/07/03 11:52:36;;;;;;;6.77;3.97;;;;;;;15.02;97.45;99925.53;4991223;28;20358;-59
2023/07/03 11:55:17;;;;;;;6.83;4.40;;;;;;;14.96;97.10;99923.19;4980687;28;20824;-58
2023/07/03 11:57:55;;;;;;;8.80;4.60;;;;;;;14.93;97.00;99910.16;4981327;28;20367;-59
2023/07/03 12:01:29;;;;;;;7.53;4.37;;;;;;;14.97;96.73;99924.88;4979732;28;20368;-57
2023/07/03 12:04:02;;;;;;;7.63;4.77;;;;;;;14.95;96.49;99924.09;4978177;28;20277;-56